createdAt,value
2023-04-22T00:00:54.870Z,99474.56
2023-04-22T00:03:23.556Z,99476.03
2023-04-22T00:05:51.633Z,99480.97
2023-04-22T00:08:19.399Z,99472.47
2023-04-22T00:10:47.097Z,99467.97
2023-04-22T00:13:14.703Z,99474.69
2023-04-22T00:15:42.475Z,99471.28
2023-04-22T00:18:13.895Z,99470.22
2023-04-22T00:20:42.863Z,99470.28
2023-04-22T00:23:11.513Z,99475.44
2023-04-22T00:25:40.521Z,99467.00
2023-04-22T00:28:08.417Z,99469.91
2023-04-22T00:30:36.326Z,99466.63
2023-04-22T00:33:04.048Z,99470.63
2023-04-22T00:35:33.119Z,99472.00
2023-04-22T00:38:01.107Z,99465.94
2023-04-22T00:40:28.748Z,99468.69
2023-04-22T00:42:56.749Z,99465.53
2023-04-22T00:45:24.376Z,99465.31
2023-04-22T00:47:53.038Z,99465.94
2023-04-22T00:50:20.899Z,99467.53
2023-04-22T00:52:49.866Z,99469.19
2023-04-22T00:55:17.519Z,99464.63
2023-04-22T00:57:45.653Z,99473.97
2023-04-22T01:00:14.188Z,99471.22
2023-04-22T01:02:42.114Z,99465.13
2023-04-22T01:05:11.150Z,99462.25
2023-04-22T01:07:38.729Z,99464.13
2023-04-22T01:10:09.031Z,99467.50
2023-04-22T01:12:36.592Z,99461.53
2023-04-22T01:15:05.162Z,99456.50
2023-04-22T01:17:33.789Z,99453.22
2023-04-22T01:20:01.681Z,99455.72
2023-04-22T01:22:36.564Z,99448.09
2023-04-22T01:25:06.815Z,99452.19
2023-04-22T01:27:34.562Z,99441.47
2023-04-22T01:30:02.328Z,99445.63
2023-04-22T01:32:31.027Z,99447.69
2023-04-22T01:34:59.076Z,99444.06
2023-04-22T01:37:26.709Z,99445.13
2023-04-22T01:39:54.548Z,99449.63
2023-04-22T01:42:23.825Z,99453.47
2023-04-22T01:44:51.472Z,99455.69
2023-04-22T01:47:19.309Z,99455.06
2023-04-22T01:49:47.292Z,99452.81
2023-04-22T01:52:15.175Z,99452.81
2023-04-22T01:54:42.952Z,99449.84
2023-04-22T01:57:14.212Z,99447.25
2023-04-22T01:59:43.420Z,99445.78
2023-04-22T02:02:11.031Z,99442.59
2023-04-22T02:04:38.745Z,99446.44
2023-04-22T02:07:06.614Z,99447.81
2023-04-22T02:09:34.236Z,99454.19
2023-04-22T02:12:02.287Z,99463.06
2023-04-22T02:14:30.177Z,99453.78
2023-04-22T02:16:59.211Z,99462.69
2023-04-22T02:19:26.774Z,99467.44
2023-04-22T02:21:54.489Z,99457.97
2023-04-22T02:24:22.147Z,99457.16
2023-04-22T02:26:50.080Z,99462.53
2023-04-22T02:29:17.897Z,99463.34
2023-04-22T02:31:45.642Z,99455.06
2023-04-22T02:34:14.605Z,99461.25
2023-04-22T02:36:42.190Z,99471.41
2023-04-22T02:39:09.759Z,99470.72
2023-04-22T02:41:37.666Z,99476.34
2023-04-22T02:44:05.373Z,99479.69
2023-04-22T02:46:33.030Z,99472.44
2023-04-22T02:49:00.848Z,99473.50
2023-04-22T02:51:29.831Z,99469.41
2023-04-22T02:53:57.438Z,99464.63
2023-04-22T02:56:26.005Z,99464.63
2023-04-22T02:58:53.754Z,99464.41
2023-04-22T03:01:21.348Z,99463.94
2023-04-22T03:03:49.468Z,99457.34
2023-04-22T03:06:18.355Z,99456.78
2023-04-22T03:08:47.290Z,99456.56
2023-04-22T03:11:14.909Z,99463.38
2023-04-22T03:13:42.497Z,99449.44
2023-04-22T03:16:10.407Z,99453.31
2023-04-22T03:18:38.079Z,99449.00
2023-04-22T03:21:07.256Z,99458.56
2023-04-22T03:23:35.297Z,99455.63
2023-04-22T03:26:05.334Z,99456.13
2023-04-22T03:28:32.992Z,99457.94
2023-04-22T03:31:00.785Z,99458.38
2023-04-22T03:33:28.429Z,99470.16
2023-04-22T03:35:56.074Z,99461.25
2023-04-22T03:38:23.721Z,99468.47
2023-04-22T03:40:51.813Z,99465.25
2023-04-22T03:43:20.826Z,99464.66
2023-04-22T03:45:48.642Z,99467.47
2023-04-22T03:48:16.271Z,99469.16
2023-04-22T03:50:43.878Z,99471.19
2023-04-22T03:53:11.569Z,99467.56
2023-04-22T03:55:39.315Z,99464.53
2023-04-22T03:58:07.050Z,99462.88
2023-04-22T04:00:36.021Z,99462.63
2023-04-22T04:03:03.813Z,99466.94
2023-04-22T04:05:31.890Z,99466.75
2023-04-22T04:07:59.582Z,99463.28
2023-04-22T04:10:28.224Z,99463.53
2023-04-22T04:12:55.855Z,99460.56
2023-04-22T04:15:23.664Z,99459.03
2023-04-22T04:17:52.645Z,99459.28
2023-04-22T04:20:20.288Z,99455.53
2023-04-22T04:22:47.971Z,99464.41
2023-04-22T04:25:15.964Z,99457.47
2023-04-22T04:27:44.021Z,99447.47
2023-04-22T04:30:12.074Z,99454.84
2023-04-22T04:32:39.773Z,99454.84
2023-04-22T04:35:09.868Z,99450.38
2023-04-22T04:37:40.354Z,99445.00
2023-04-22T04:40:10.266Z,99438.75
2023-04-22T04:42:38.534Z,99435.78
2023-04-22T04:45:07.593Z,99428.94
2023-04-22T04:47:35.388Z,99429.66
2023-04-22T04:50:04.414Z,99428.44
2023-04-22T04:52:33.510Z,99435.31
2023-04-22T04:55:01.089Z,99436.63
2023-04-22T04:57:31.020Z,99443.50
2023-04-22T05:00:01.564Z,99443.41
2023-04-22T05:02:29.347Z,99439.38
2023-04-22T05:04:57.156Z,99440.09
2023-04-22T05:07:24.872Z,99440.84
2023-04-22T05:09:53.913Z,99443.47
2023-04-22T05:12:21.673Z,99430.94
2023-04-22T05:14:49.243Z,99437.97
2023-04-22T05:17:16.903Z,99436.47
2023-04-22T05:19:44.625Z,99441.38
2023-04-22T05:22:12.441Z,99438.94
2023-04-22T05:24:40.047Z,99441.84
2023-04-22T05:27:09.219Z,99434.72
2023-04-22T05:29:38.114Z,99438.03
2023-04-22T05:32:06.154Z,99436.38
2023-04-22T05:34:34.232Z,99437.50
2023-04-22T05:37:03.025Z,99442.06
2023-04-22T05:39:30.800Z,99441.16
2023-04-22T05:41:58.596Z,99442.97
2023-04-22T05:44:27.528Z,99446.50
2023-04-22T05:46:57.558Z,99455.25
2023-04-22T05:49:25.165Z,99457.50
2023-04-22T05:51:52.790Z,99461.47
2023-04-22T05:54:20.413Z,99443.25
2023-04-22T05:56:48.046Z,99449.81
2023-04-22T05:59:15.965Z,99451.44
2023-04-22T06:01:45.080Z,99458.28
2023-04-22T06:04:13.345Z,99452.06
2023-04-22T06:06:41.228Z,99465.56
2023-04-22T06:09:09.151Z,99465.91
2023-04-22T06:11:37.101Z,99454.84
2023-04-22T06:14:04.834Z,99455.19
2023-04-22T06:16:32.586Z,99451.75
2023-04-22T06:19:03.947Z,99449.44
2023-04-22T06:21:32.896Z,99447.81
2023-04-22T06:24:01.271Z,99448.09
2023-04-22T06:26:28.988Z,99440.00
2023-04-22T06:28:56.821Z,99441.75
2023-04-22T06:31:24.556Z,99441.97
2023-04-22T06:33:52.126Z,99442.06
2023-04-22T06:36:21.134Z,99439.63
2023-04-22T06:38:48.871Z,99441.66
2023-04-22T06:41:17.398Z,99441.31
2023-04-22T06:43:45.411Z,99449.16
2023-04-22T06:46:14.245Z,99442.00
2023-04-22T06:48:41.937Z,99452.28
2023-04-22T06:51:09.734Z,99442.69
2023-04-22T06:53:38.731Z,99441.13
2023-04-22T06:56:07.297Z,99438.94
2023-04-22T06:58:35.119Z,99438.69
2023-04-22T07:01:03.027Z,99440.91
2023-04-22T07:03:30.793Z,99437.66
2023-04-22T07:05:58.631Z,99433.84
2023-04-22T07:08:26.396Z,99424.53
2023-04-22T07:10:55.316Z,99418.38
2023-04-22T07:13:23.247Z,99430.09
2023-04-22T07:15:51.045Z,99424.28
2023-04-22T07:18:18.728Z,99431.69
2023-04-22T07:20:46.531Z,99434.53
2023-04-22T07:23:14.130Z,99433.69
2023-04-22T07:25:41.793Z,99434.03
2023-04-22T07:28:10.817Z,99425.66
2023-04-22T07:30:38.623Z,99423.34
2023-04-22T07:33:06.259Z,99412.25
2023-04-22T07:35:33.909Z,99408.50
2023-04-22T07:38:01.556Z,99411.59
2023-04-22T07:40:29.151Z,99411.06
2023-04-22T07:42:56.943Z,99414.69
2023-04-22T07:45:29.668Z,99406.22
2023-04-22T07:47:57.622Z,99407.31
2023-04-22T07:50:25.418Z,99409.88
2023-04-22T07:52:53.054Z,99409.09
2023-04-22T07:55:20.952Z,99411.66
2023-04-22T07:57:48.575Z,99394.91
2023-04-22T08:00:17.056Z,99385.13
2023-04-22T08:02:47.472Z,99372.13
2023-04-22T08:05:15.732Z,99376.88
2023-04-22T08:07:43.342Z,99384.00
2023-04-22T08:10:13.437Z,99371.53
2023-04-22T08:12:43.174Z,99379.97
2023-04-22T08:15:11.317Z,99382.59
2023-04-22T08:17:39.434Z,99376.03
2023-04-22T08:20:10.379Z,99377.94
2023-04-22T08:25:08.457Z,99379.72
2023-04-22T08:27:36.238Z,99382.97
2023-04-22T08:30:04.447Z,99374.78
2023-04-22T08:32:32.733Z,99382.41
2023-04-22T08:35:04.909Z,99375.50
2023-04-22T08:37:35.075Z,99376.78
2023-04-22T08:40:02.848Z,99381.66
2023-04-22T08:42:30.891Z,99373.22
2023-04-22T08:44:59.484Z,99364.34
2023-04-22T08:47:28.041Z,99375.53
2023-04-22T08:49:56.731Z,99376.03
2023-04-22T08:52:24.565Z,99374.94
2023-04-22T08:54:54.795Z,99374.19
2023-04-22T08:57:22.753Z,99373.00
2023-04-22T08:59:51.094Z,99372.78
2023-04-22T09:02:22.455Z,99370.28
2023-04-22T09:04:51.766Z,99377.50
2023-04-22T09:07:25.069Z,99372.00
2023-04-22T09:09:55.685Z,99369.69
2023-04-22T09:12:23.373Z,99366.88
2023-04-22T09:14:51.285Z,99362.81
2023-04-22T09:17:21.090Z,99356.84
2023-04-22T09:19:58.434Z,99363.72
2023-04-22T09:22:27.909Z,99364.31
2023-04-22T09:24:58.413Z,99358.63
2023-04-22T09:27:26.518Z,99359.47
2023-04-22T09:29:54.410Z,99361.81
2023-04-22T09:32:25.853Z,99360.94
2023-04-22T09:34:55.780Z,99367.81
2023-04-22T09:37:33.243Z,99367.31
2023-04-22T09:40:16.565Z,99367.69
2023-04-22T09:42:49.418Z,99364.19
2023-04-22T09:45:26.303Z,99370.78
2023-04-22T09:47:55.043Z,99378.44
2023-04-22T09:50:23.306Z,99360.56
2023-04-22T09:52:56.019Z,99366.06
2023-04-22T09:55:26.348Z,99359.91
2023-04-22T09:57:55.642Z,99362.56
2023-04-22T10:00:25.332Z,99356.97
2023-04-22T10:02:53.208Z,99354.28
2023-04-22T10:05:21.069Z,99354.06
2023-04-22T10:07:49.101Z,99346.75
2023-04-22T10:10:16.842Z,99352.47
2023-04-22T10:12:47.993Z,99356.19
2023-04-22T10:15:15.824Z,99337.06
2023-04-22T10:17:45.942Z,99336.13
2023-04-22T10:20:18.348Z,99340.66
2023-04-22T10:22:46.811Z,99337.66
2023-04-22T10:25:29.050Z,99334.78
2023-04-22T10:28:03.830Z,99329.31
2023-04-22T10:30:33.484Z,99324.66
2023-04-22T10:33:42.674Z,99322.28
2023-04-22T10:36:18.681Z,99328.88
2023-04-22T10:39:18.802Z,99326.53
2023-04-22T10:41:55.356Z,99329.16
2023-04-22T10:44:28.468Z,99329.84
2023-04-22T10:47:03.656Z,99328.88
2023-04-22T10:49:35.315Z,99328.78
2023-04-22T10:52:05.029Z,99312.22
2023-04-22T10:55:01.520Z,99311.00
2023-04-22T10:57:40.146Z,99316.66
2023-04-22T11:00:23.030Z,99310.69
2023-04-22T11:02:55.339Z,99310.69
2023-04-22T11:05:26.317Z,99309.34
2023-04-22T11:07:56.084Z,99299.91
2023-04-22T11:10:42.980Z,99298.34
2023-04-22T11:13:16.609Z,99291.94
2023-04-22T11:15:48.238Z,99293.44
2023-04-22T11:18:23.611Z,99281.28
2023-04-22T11:20:53.326Z,99279.06
2023-04-22T11:23:25.260Z,99295.22
2023-04-22T11:25:57.597Z,99280.59
2023-04-22T11:28:25.455Z,99275.25
2023-04-22T11:31:02.955Z,99273.94
2023-04-22T11:33:30.794Z,99279.41
2023-04-22T11:35:58.803Z,99269.13
2023-04-22T11:38:26.850Z,99270.41
2023-04-22T11:40:58.755Z,99261.53
2023-04-22T11:43:26.877Z,99261.59
2023-04-22T11:45:57.249Z,99271.84
2023-04-22T11:48:25.191Z,99265.16
2023-04-22T11:51:09.602Z,99264.31
2023-04-22T11:53:38.654Z,99267.84
2023-04-22T11:56:06.334Z,99261.47
2023-04-22T11:58:34.022Z,99261.41
2023-04-22T12:01:02.979Z,99259.31
2023-04-22T12:03:32.089Z,99246.22
2023-04-22T12:06:02.582Z,99245.00
2023-04-22T12:08:33.714Z,99260.28
2023-04-22T12:11:03.990Z,99236.81
2023-04-22T12:13:34.614Z,99248.97
2023-04-22T12:16:05.375Z,99249.75
2023-04-22T12:18:33.886Z,99254.00
2023-04-22T12:21:02.367Z,99249.81
2023-04-22T12:23:30.308Z,99257.44
2023-04-22T12:25:58.527Z,99256.13
2023-04-22T12:28:26.135Z,99253.84
2023-04-22T12:30:53.758Z,99249.81
2023-04-22T12:33:22.946Z,99237.59
2023-04-22T12:35:52.514Z,99254.94
2023-04-22T12:38:20.246Z,99256.13
2023-04-22T12:40:47.791Z,99255.63
2023-04-22T12:43:15.496Z,99246.06
2023-04-22T12:45:43.346Z,99246.38
2023-04-22T12:48:11.206Z,99253.28
2023-04-22T12:50:40.373Z,99254.81
2023-04-22T12:53:08.267Z,99248.59
2023-04-22T12:55:36.452Z,99243.47
2023-04-22T12:58:07.050Z,99238.53
2023-04-22T13:00:34.804Z,99249.28
2023-04-22T13:03:02.599Z,99245.91
2023-04-22T13:05:31.643Z,99240.69
2023-04-22T13:08:07.105Z,99253.78
2023-04-22T13:10:36.116Z,99242.59
2023-04-22T13:13:17.979Z,99239.72
2023-04-22T13:15:47.379Z,99237.13
2023-04-22T13:18:18.358Z,99252.03
2023-04-22T13:20:47.601Z,99242.19
2023-04-22T13:23:17.036Z,99243.50
2023-04-22T13:25:45.018Z,99235.94
2023-04-22T13:28:12.741Z,99230.69
2023-04-22T13:30:40.476Z,99236.00
2023-04-22T13:33:08.478Z,99249.84
2023-04-22T13:35:36.569Z,99253.38
2023-04-22T13:38:05.272Z,99255.13
2023-04-22T13:40:34.244Z,99245.16
2023-04-22T13:43:01.957Z,99254.78
2023-04-22T13:45:29.672Z,99250.59
2023-04-22T13:47:57.444Z,99254.66
2023-04-22T13:50:25.326Z,99252.25
2023-04-22T13:52:52.989Z,99258.47
2023-04-22T13:55:21.098Z,99254.06
2023-04-22T13:57:51.589Z,99252.97
2023-04-22T14:00:20.640Z,99249.94
2023-04-22T14:02:48.856Z,99253.91
2023-04-22T14:05:16.774Z,99246.41
2023-04-22T14:07:44.522Z,99249.13
2023-04-22T14:10:13.688Z,99252.97
2023-04-22T14:12:41.333Z,99255.06
2023-04-22T14:15:11.507Z,99258.88
2023-04-22T14:17:39.384Z,99258.16
2023-04-22T14:20:08.660Z,99253.63
2023-04-22T14:22:36.282Z,99264.91
2023-04-22T14:25:04.144Z,99266.53
2023-04-22T14:27:32.845Z,99265.50
2023-04-22T14:30:00.418Z,99268.56
2023-04-22T14:32:29.415Z,99278.94
2023-04-22T14:34:57.051Z,99277.06
2023-04-22T14:37:24.763Z,99278.94
2023-04-22T14:39:52.395Z,99287.59
2023-04-22T14:42:20.422Z,99301.25
2023-04-22T14:44:48.190Z,99305.41
2023-04-22T14:47:15.782Z,99313.88
2023-04-22T14:49:44.804Z,99332.94
2023-04-22T14:52:12.575Z,99319.88
2023-04-22T14:54:40.125Z,99320.50
2023-04-22T14:57:07.788Z,99313.19
2023-04-22T14:59:35.555Z,99315.13
2023-04-22T15:02:03.654Z,99308.59
2023-04-22T15:04:31.574Z,99314.56
2023-04-22T15:07:01.592Z,99310.75
2023-04-22T15:09:29.249Z,99306.13
2023-04-22T15:11:59.510Z,99311.84
2023-04-22T15:14:27.116Z,99306.13
2023-04-22T15:16:55.010Z,99310.16
2023-04-22T15:19:22.614Z,99308.75
2023-04-22T15:21:50.261Z,99298.56
2023-04-22T15:24:24.219Z,99299.09
2023-04-22T15:26:53.343Z,99300.97
2023-04-22T15:29:21.742Z,99298.53
2023-04-22T15:31:49.476Z,99301.22
2023-04-22T15:34:17.605Z,99300.16
2023-04-22T15:36:45.841Z,99304.22
2023-04-22T15:39:13.566Z,99312.09
2023-04-22T15:41:43.515Z,99293.66
2023-04-22T15:44:12.991Z,99299.56
2023-04-22T15:46:40.918Z,99303.94
2023-04-22T15:49:08.553Z,99306.59
2023-04-22T15:51:36.414Z,99303.59
2023-04-22T15:54:04.628Z,99305.78
2023-04-22T15:56:34.489Z,99304.41
2023-04-22T15:59:08.016Z,99295.91
2023-04-22T16:01:40.479Z,99286.69
2023-04-22T16:04:08.779Z,99305.78
2023-04-22T16:06:38.016Z,99298.44
2023-04-22T16:09:05.982Z,99300.09
2023-04-22T16:11:33.848Z,99296.22
2023-04-22T16:14:02.874Z,99307.69
2023-04-22T16:16:30.874Z,99296.53
2023-04-22T16:18:59.508Z,99298.72
2023-04-22T16:21:28.647Z,99298.44
2023-04-22T16:23:56.313Z,99301.44
2023-04-22T16:26:24.065Z,99299.81
2023-04-22T16:28:51.805Z,99302.28
2023-04-22T16:31:22.925Z,99301.16
2023-04-22T16:33:50.856Z,99310.47
2023-04-22T16:36:18.599Z,99303.09
2023-04-22T16:38:46.620Z,99296.88
2023-04-22T16:41:15.320Z,99300.69
2023-04-22T16:43:44.084Z,99292.22
2023-04-22T16:46:11.772Z,99293.31
2023-04-22T16:48:40.775Z,99293.56
2023-04-22T16:51:08.436Z,99291.16
2023-04-22T16:53:36.573Z,99292.53
2023-04-22T16:56:05.311Z,99297.59
2023-04-22T16:58:33.137Z,99286.75
2023-04-22T17:01:01.068Z,99293.81
2023-04-22T17:03:29.077Z,99296.84
2023-04-22T17:05:58.239Z,99297.94
2023-04-22T17:08:26.010Z,99302.84
2023-04-22T17:10:53.612Z,99298.25
2023-04-22T17:13:21.311Z,99301.53
2023-04-22T17:15:49.059Z,99301.25
2023-04-22T17:18:19.292Z,99289.56
2023-04-22T17:20:46.906Z,99290.66
2023-04-22T17:23:16.343Z,99291.72
2023-04-22T17:25:46.819Z,99291.72
2023-04-22T17:28:14.530Z,99293.34
2023-04-22T17:30:42.350Z,99297.97
2023-04-22T17:33:10.606Z,99299.59
2023-04-22T17:35:38.219Z,99299.28
2023-04-22T17:38:06.027Z,99302.53
2023-04-22T17:40:34.962Z,99302.28
2023-04-22T17:43:02.672Z,99312.84
2023-04-22T17:45:30.332Z,99306.28
2023-04-22T17:47:57.945Z,99307.09
2023-04-22T17:50:25.737Z,99304.94
2023-04-22T17:52:53.383Z,99302.75
2023-04-22T17:55:21.407Z,99308.13
2023-04-22T17:57:50.539Z,99316.53
2023-04-22T18:00:19.132Z,99313.25
2023-04-22T18:02:47.099Z,99318.38
2023-04-22T18:05:15.873Z,99317.50
2023-04-22T18:07:43.482Z,99325.84
2023-04-22T18:10:12.112Z,99326.19
2023-04-22T18:12:40.362Z,99323.91
2023-04-22T18:15:09.906Z,99324.22
2023-04-22T18:17:37.551Z,99332.63
2023-04-22T18:20:17.480Z,99327.41
2023-04-22T18:22:46.963Z,99331.91
2023-04-22T18:25:14.564Z,99330.00
2023-04-22T18:27:42.169Z,99339.53
2023-04-22T18:30:12.187Z,99332.63
2023-04-22T18:32:40.397Z,99344.25
2023-04-22T18:35:09.603Z,99343.97
2023-04-22T18:37:40.653Z,99345.38
2023-04-22T18:40:09.411Z,99352.94
2023-04-22T18:42:38.302Z,99351.22
2023-04-22T18:45:08.020Z,99349.88
2023-04-22T18:47:36.995Z,99362.53
2023-04-22T18:50:04.989Z,99355.47
2023-04-22T18:52:33.331Z,99364.13
2023-04-22T18:55:01.051Z,99356.97
2023-04-22T18:57:28.821Z,99362.34
2023-04-22T18:59:56.509Z,99366.41
2023-04-22T19:02:24.458Z,99373.34
2023-04-22T19:04:54.965Z,99377.69
2023-04-22T19:07:22.667Z,99389.84
2023-04-22T19:09:50.245Z,99378.69
2023-04-22T19:12:19.455Z,99396.13
2023-04-22T19:14:48.164Z,99395.22
2023-04-22T19:17:15.785Z,99392.44
2023-04-22T19:19:44.266Z,99401.03
2023-04-22T19:22:13.648Z,99405.19
2023-04-22T19:24:41.591Z,99409.97
2023-04-22T19:27:12.357Z,99408.56
2023-04-22T19:29:40.747Z,99406.69
2023-04-22T19:32:09.734Z,99403.97
2023-04-22T19:34:38.034Z,99414.91
2023-04-22T19:37:06.018Z,99403.72
2023-04-22T19:39:35.341Z,99408.31
2023-04-22T19:42:03.819Z,99408.69
2023-04-22T19:44:34.156Z,99407.69
2023-04-22T19:47:01.998Z,99410.06
2023-04-22T19:49:32.707Z,99408.38
2023-04-22T19:52:03.187Z,99401.22
2023-04-22T19:54:31.756Z,99407.56
2023-04-22T19:57:06.698Z,99414.44
2023-04-22T19:59:35.319Z,99416.00
2023-04-22T20:02:03.393Z,99413.88
2023-04-22T20:04:32.451Z,99416.91
2023-04-22T20:07:02.852Z,99417.25
2023-04-22T20:09:32.758Z,99415.84
2023-04-22T20:12:02.813Z,99414.94
2023-04-22T20:14:31.826Z,99417.78
2023-04-22T20:16:59.916Z,99418.41
2023-04-22T20:19:28.380Z,99417.47
2023-04-22T20:21:58.595Z,99427.41
2023-04-22T20:24:29.287Z,99425.16
2023-04-22T20:26:57.195Z,99427.81
2023-04-22T20:29:26.870Z,99426.00
2023-04-22T20:31:55.561Z,99422.41
2023-04-22T20:34:23.886Z,99423.94
2023-04-22T20:36:53.548Z,99430.50
2023-04-22T20:39:23.909Z,99429.34
2023-04-22T20:41:55.476Z,99424.41
2023-04-22T20:44:24.080Z,99420.69
2023-04-22T20:46:55.610Z,99425.19
2023-04-22T20:49:23.183Z,99417.91
2023-04-22T20:51:51.182Z,99432.38
2023-04-22T20:54:28.499Z,99430.25
2023-04-22T20:56:57.691Z,99437.72
2023-04-22T20:59:25.458Z,99433.81
2023-04-22T21:01:55.079Z,99433.81
2023-04-22T21:04:23.835Z,99436.63
2023-04-22T21:06:52.461Z,99439.09
2023-04-22T21:09:21.667Z,99436.34
2023-04-22T21:11:49.933Z,99437.31
2023-04-22T21:14:18.329Z,99433.78
2023-04-22T21:16:50.598Z,99441.91
2023-04-22T21:19:20.435Z,99441.25
2023-04-22T21:21:52.028Z,99435.34
2023-04-22T21:24:20.994Z,99443.81
2023-04-22T21:26:49.254Z,99439.25
2023-04-22T21:29:17.467Z,99440.88
2023-04-22T21:31:51.609Z,99446.06
2023-04-22T21:34:26.717Z,99446.22
2023-04-22T21:36:54.321Z,99456.19
2023-04-22T21:39:21.932Z,99453.25
2023-04-22T21:41:49.962Z,99455.41
2023-04-22T21:44:17.598Z,99455.41
2023-04-22T21:46:45.562Z,99458.34
2023-04-22T21:49:13.342Z,99459.50
2023-04-22T21:51:42.305Z,99458.19
2023-04-22T21:54:09.872Z,99460.31
2023-04-22T21:56:37.574Z,99448.59
2023-04-22T21:59:05.440Z,99456.81
2023-04-22T22:01:33.056Z,99457.72
2023-04-22T22:04:03.714Z,99456.78
2023-04-22T22:06:33.160Z,99458.28
2023-04-22T22:09:02.032Z,99453.28
2023-04-22T22:11:31.143Z,99451.84
2023-04-22T22:13:59.446Z,99456.78
2023-04-22T22:16:27.224Z,99448.59
2023-04-22T22:18:55.722Z,99449.63
2023-04-22T22:21:23.296Z,99447.63
2023-04-22T22:23:50.934Z,99443.88
2023-04-22T22:26:22.770Z,99446.59
2023-04-22T22:28:50.573Z,99446.81
2023-04-22T22:31:18.684Z,99449.38
2023-04-22T22:33:46.268Z,99443.16
2023-04-22T22:36:13.874Z,99448.91
2023-04-22T22:38:41.434Z,99452.19
2023-04-22T22:41:09.056Z,99448.56
2023-04-22T22:43:40.535Z,99457.81
2023-04-22T22:46:08.138Z,99447.03
2023-04-22T22:48:35.997Z,99453.13
2023-04-22T22:51:03.617Z,99449.22
2023-04-22T22:53:32.986Z,99452.16
2023-04-22T22:56:00.612Z,99444.31
2023-04-22T22:58:28.350Z,99452.41
2023-04-22T23:00:57.270Z,99451.47
2023-04-22T23:03:25.015Z,99446.53
2023-04-22T23:05:52.755Z,99453.22
2023-04-22T23:08:20.380Z,99452.28
2023-04-22T23:10:47.992Z,99441.59
2023-04-22T23:13:15.549Z,99441.72
2023-04-22T23:15:43.202Z,99439.47
2023-04-22T23:18:14.197Z,99441.81
2023-04-22T23:20:42.959Z,99439.78
2023-04-22T23:23:12.794Z,99435.69
2023-04-22T23:25:40.877Z,99426.44
2023-04-22T23:28:08.941Z,99429.34
2023-04-22T23:30:36.938Z,99431.88
2023-04-22T23:33:05.235Z,99425.38
2023-04-22T23:35:36.680Z,99430.25
2023-04-22T23:38:05.406Z,99422.28
2023-04-22T23:40:32.964Z,99424.63
2023-04-22T23:43:00.690Z,99423.75
2023-04-22T23:45:28.370Z,99427.34
2023-04-22T23:47:56.018Z,99429.16
2023-04-22T23:50:23.615Z,99422.47
2023-04-22T23:52:52.717Z,99416.97
2023-04-22T23:55:20.909Z,99423.53
2023-04-22T23:57:48.952Z,99413.31
